sensor_id;sensor_type;location;lat;lon;timestamp;pressure;altitude;pressure_sealevel;temperature;humidity
9077;BME280;4574;51.072;17.174;2024-02-14T00:02:23;100705.59;;;2.43;100.00
9077;BME280;4574;51.072;17.174;2024-02-14T00:04:53;100702.97;;;2.43;100.00
9077;BME280;4574;51.072;17.174;2024-02-14T00:07:21;100712.31;;;2.47;100.00
9077;BME280;4574;51.072;17.174;2024-02-14T00:09:50;100707.09;;;2.47;100.00
9077;BME280;4574;51.072;17.174;2024-02-14T00:12:19;100715.88;;;2.46;100.00
9077;BME280;4574;51.072;17.174;2024-02-14T00:14:47;100713.25;;;2.46;100.00
9077;BME280;4574;51.072;17.174;2024-02-14T00:17:17;100694.72;;;2.35;100.00
9077;BME280;4574;51.072;17.174;2024-02-14T00:19:46;100712.50;;;2.44;100.00
9077;BME280;4574;51.072;17.174;2024-02-14T00:22:15;100721.09;;;2.46;100.00
9077;BME280;4574;51.072;17.174;2024-02-14T00:24:43;100712.50;;;2.44;100.00
9077;BME280;4574;51.072;17.174;2024-02-14T00:27:12;100718.47;;;2.46;100.00
9077;BME280;4574;51.072;17.174;2024-02-14T00:29:41;100715.28;;;2.41;100.00
9077;BME280;4574;51.072;17.174;2024-02-14T00:32:12;100719.56;;;2.42;100.00
9077;BME280;4574;51.072;17.174;2024-02-14T00:34:42;100722.19;;;2.42;100.00
9077;BME280;4574;51.072;17.174;2024-02-14T00:37:12;100721.31;;;2.42;100.00
9077;BME280;4574;51.072;17.174;2024-02-14T00:39:40;100719.75;;;2.39;100.00
9077;BME280;4574;51.072;17.174;2024-02-14T00:42:09;100719.75;;;2.39;100.00
9077;BME280;4574;51.072;17.174;2024-02-14T00:44:38;100723.28;;;2.38;100.00
9077;BME280;4574;51.072;17.174;2024-02-14T00:47:06;100717.28;;;2.36;100.00
9077;BME280;4574;51.072;17.174;2024-02-14T00:49:35;100722.53;;;2.36;100.00
9077;BME280;4574;51.072;17.174;2024-02-14T00:52:06;100722.53;;;2.36;100.00
9077;BME280;4574;51.072;17.174;2024-02-14T00:54:35;100723.50;;;2.34;100.00
9077;BME280;4574;51.072;17.174;2024-02-14T00:57:03;100721.94;;;2.31;100.00
9077;BME280;4574;51.072;17.174;2024-02-14T00:59:32;100719.38;;;2.30;100.00
9077;BME280;4574;51.072;17.174;2024-02-14T01:02:01;100717.78;;;2.27;100.00
9077;BME280;4574;51.072;17.174;2024-02-14T01:04:29;100728.25;;;2.27;100.00
9077;BME280;4574;51.072;17.174;2024-02-14T01:06:58;100723.94;;;2.26;100.00
9077;BME280;4574;51.072;17.174;2024-02-14T01:09:28;100725.78;;;2.24;100.00
9077;BME280;4574;51.072;17.174;2024-02-14T01:11:57;100718.94;;;2.22;100.00
9077;BME280;4574;51.072;17.174;2024-02-14T01:14:25;100730.50;;;2.18;100.00
9077;BME280;4574;51.072;17.174;2024-02-14T01:16:54;100730.41;;;2.19;100.00
9077;BME280;4574;51.072;17.174;2024-02-14T01:19:23;100723.50;;;2.18;100.00
9077;BME280;4574;51.072;17.174;2024-02-14T01:21:55;100725.44;;;2.15;100.00
9077;BME280;4574;51.072;17.174;2024-02-14T01:24:24;100725.09;;;2.05;100.00
9077;BME280;4574;51.072;17.174;2024-02-14T01:26:56;100721.72;;;2.03;100.00
9077;BME280;4574;51.072;17.174;2024-02-14T01:29:24;100717.59;;;1.99;100.00
9077;BME280;4574;51.072;17.174;2024-02-14T01:31:53;100709.75;;;1.99;100.00
9077;BME280;4574;51.072;17.174;2024-02-14T01:34:21;100712.53;;;1.96;100.00
9077;BME280;4574;51.072;17.174;2024-02-14T01:36:51;100724.50;;;2.00;100.00
9077;BME280;4574;51.072;17.174;2024-02-14T01:39:21;100717.59;;;1.99;100.00
9077;BME280;4574;51.072;17.174;2024-02-14T01:41:49;100718.41;;;2.00;100.00
9077;BME280;4574;51.072;17.174;2024-02-14T01:44:20;100720.19;;;1.99;100.00
9077;BME280;4574;51.072;17.174;2024-02-14T01:46:49;100719.44;;;1.97;100.00
9077;BME280;4574;51.072;17.174;2024-02-14T01:49:17;100720.34;;;1.96;100.00
9077;BME280;4574;51.072;17.174;2024-02-14T01:51:47;100716.72;;;1.99;100.00
9077;BME280;4574;51.072;17.174;2024-02-14T01:54:16;100721.13;;;1.98;100.00
9077;BME280;4574;51.072;17.174;2024-02-14T01:56:45;100726.34;;;1.98;100.00
9077;BME280;4574;51.072;17.174;2024-02-14T01:59:14;100732.47;;;1.97;100.00
9077;BME280;4574;51.072;17.174;2024-02-14T02:01:47;100709.47;;;1.88;100.00
9077;BME280;4574;51.072;17.174;2024-02-14T02:04:18;100724.66;;;1.97;100.00
9077;BME280;4574;51.072;17.174;2024-02-14T02:06:48;100719.44;;;1.97;100.00
9077;BME280;4574;51.072;17.174;2024-02-14T02:09:16;100711.00;;;1.92;100.00
9077;BME280;4574;51.072;17.174;2024-02-14T02:11:46;100702.56;;;1.87;100.00
9077;BME280;4574;51.072;17.174;2024-02-14T02:14:16;100702.91;;;1.81;100.00
9077;BME280;4574;51.072;17.174;2024-02-14T02:16:46;100714.00;;;1.85;100.00
9077;BME280;4574;51.072;17.174;2024-02-14T02:19:15;100705.50;;;1.81;100.00
9077;BME280;4574;51.072;17.174;2024-02-14T02:21:44;100705.66;;;1.78;100.00
9077;BME280;4574;51.072;17.174;2024-02-14T02:24:14;100706.59;;;1.77;100.00
9077;BME280;4574;51.072;17.174;2024-02-14T02:26:43;100703.22;;;1.75;100.00
9077;BME280;4574;51.072;17.174;2024-02-14T02:29:12;100705.97;;;1.72;100.00
9077;BME280;4574;51.072;17.174;2024-02-14T02:31:42;100705.22;;;1.70;100.00
9077;BME280;4574;51.072;17.174;2024-02-14T02:34:11;100706.91;;;1.71;100.00
9077;BME280;4574;51.072;17.174;2024-02-14T02:36:40;100705.22;;;1.70;100.00
9077;BME280;4574;51.072;17.174;2024-02-14T02:39:11;100705.22;;;1.70;100.00
9077;BME280;4574;51.072;17.174;2024-02-14T02:41:42;100700.88;;;1.69;100.00
9077;BME280;4574;51.072;17.174;2024-02-14T02:44:14;100700.13;;;1.67;100.00
9077;BME280;4574;51.072;17.174;2024-02-14T02:46:43;100702.84;;;1.66;100.00
9077;BME280;4574;51.072;17.174;2024-02-14T02:49:13;100684.28;;;1.55;100.00
9077;BME280;4574;51.072;17.174;2024-02-14T02:51:42;100700.53;;;1.60;100.00
9077;BME280;4574;51.072;17.174;2024-02-14T02:54:11;100707.59;;;1.58;100.00
9077;BME280;4574;51.072;17.174;2024-02-14T02:56:41;100698.91;;;1.57;100.00
9077;BME280;4574;51.072;17.174;2024-02-14T02:59:10;100706.84;;;1.56;100.00
9077;BME280;4574;51.072;17.174;2024-02-14T03:01:40;100715.66;;;1.53;100.00
9077;BME280;4574;51.072;17.174;2024-02-14T03:04:09;100721.78;;;1.52;100.00
9077;BME280;4574;51.072;17.174;2024-02-14T03:06:37;100723.63;;;1.50;100.00
9077;BME280;4574;51.072;17.174;2024-02-14T03:09:06;100714.13;;;1.49;100.00
9077;BME280;4574;51.072;17.174;2024-02-14T03:11:35;100713.81;;;1.38;100.00
9077;BME280;4574;51.072;17.174;2024-02-14T03:14:05;100722.56;;;1.37;100.00
9077;BME280;4574;51.072;17.174;2024-02-14T03:16:35;100723.31;;;1.06;100.00
9077;BME280;4574;51.072;17.174;2024-02-14T03:19:04;100729.16;;;1.11;100.00
9077;BME280;4574;51.072;17.174;2024-02-14T03:21:33;100716.88;;;0.96;100.00
9077;BME280;4574;51.072;17.174;2024-02-14T03:24:02;100717.72;;;0.96;100.00
9077;BME280;4574;51.072;17.174;2024-02-14T03:26:32;100723.00;;;0.95;100.00
9077;BME280;4574;51.072;17.174;2024-02-14T03:29:01;100735.28;;;0.93;100.00
9077;BME280;4574;51.072;17.174;2024-02-14T03:31:34;100725.84;;;0.90;100.00
9077;BME280;4574;51.072;17.174;2024-02-14T03:34:03;100714.72;;;0.87;100.00
9077;BME280;4574;51.072;17.174;2024-02-14T03:36:32;100727.59;;;0.90;100.00
9077;BME280;4574;51.072;17.174;2024-02-14T03:39:01;100726.69;;;0.91;100.00
9077;BME280;4574;51.072;17.174;2024-02-14T03:41:32;100725.91;;;0.89;100.00
9077;BME280;4574;51.072;17.174;2024-02-14T03:44:01;100732.03;;;0.88;100.00
9077;BME280;4574;51.072;17.174;2024-02-14T03:46:31;100734.72;;;0.86;100.00
9077;BME280;4574;51.072;17.174;2024-02-14T03:49:03;100734.03;;;0.83;100.00
9077;BME280;4574;51.072;17.174;2024-02-14T03:51:32;100729.78;;;0.80;100.00
9077;BME280;4574;51.072;17.174;2024-02-14T03:54:01;100737.41;;;0.85;100.00
9077;BME280;4574;51.072;17.174;2024-02-14T03:56:29;100742.31;;;0.91;100.00
9077;BME280;4574;51.072;17.174;2024-02-14T03:58:59;100746.47;;;0.95;100.00
9077;BME280;4574;51.072;17.174;2024-02-14T04:01:28;100749.78;;;0.98;100.00
9077;BME280;4574;51.072;17.174;2024-02-14T04:03:58;100750.75;;;0.96;100.00
9077;BME280;4574;51.072;17.174;2024-02-14T04:06:29;100747.38;;;0.94;100.00
9077;BME280;4574;51.072;17.174;2024-02-14T04:09:00;100745.41;;;0.99;100.00
9077;BME280;4574;51.072;17.174;2024-02-14T04:11:28;100747.94;;;1.00;100.00
9077;BME280;4574;51.072;17.174;2024-02-14T04:13:57;100748.00;;;0.99;100.00
9077;BME280;4574;51.072;17.174;2024-02-14T04:16:25;100744.72;;;0.95;100.00
9077;BME280;4574;51.072;17.174;2024-02-14T04:18:54;100743.09;;;0.93;100.00
9077;BME280;4574;51.072;17.174;2024-02-14T04:21:23;100742.31;;;0.91;100.00
9077;BME280;4574;51.072;17.174;2024-02-14T04:23:53;100742.03;;;0.97;100.00
9077;BME280;4574;51.072;17.174;2024-02-14T04:26:22;100741.81;;;1.01;100.00
9077;BME280;4574;51.072;17.174;2024-02-14T04:28:51;100745.09;;;1.05;100.00
9077;BME280;4574;51.072;17.174;2024-02-14T04:31:20;100750.16;;;1.08;100.00
9077;BME280;4574;51.072;17.174;2024-02-14T04:33:48;100734.66;;;1.05;100.00
9077;BME280;4574;51.072;17.174;2024-02-14T04:36:20;100740.91;;;1.02;100.00
9077;BME280;4574;51.072;17.174;2024-02-14T04:38:50;100742.41;;;0.89;100.00
9077;BME280;4574;51.072;17.174;2024-02-14T04:41:20;100747.31;;;0.95;100.00
9077;BME280;4574;51.072;17.174;2024-02-14T04:43:50;100744.56;;;0.98;100.00
9077;BME280;4574;51.072;17.174;2024-02-14T04:46:18;100744.41;;;1.01;100.00
9077;BME280;4574;51.072;17.174;2024-02-14T04:48:49;100744.41;;;1.01;100.00
9077;BME280;4574;51.072;17.174;2024-02-14T04:51:18;100731.91;;;0.91;100.00
9077;BME280;4574;51.072;17.174;2024-02-14T04:53:46;100743.84;;;0.95;100.00
9077;BME280;4574;51.072;17.174;2024-02-14T04:56:15;100739.84;;;0.88;100.00
9077;BME280;4574;51.072;17.174;2024-02-14T04:58:45;100739.38;;;0.80;100.00
9077;BME280;4574;51.072;17.174;2024-02-14T05:01:14;100730.66;;;0.81;100.00
9077;BME280;4574;51.072;17.174;2024-02-14T05:03:42;100729.41;;;0.71;100.00
9077;BME280;4574;51.072;17.174;2024-02-14T05:06:11;100726.59;;;0.57;100.00
9077;BME280;4574;51.072;17.174;2024-02-14T05:08:39;100731.97;;;0.54;100.00
9077;BME280;4574;51.072;17.174;2024-02-14T05:11:08;100716.34;;;0.54;100.00
9077;BME280;4574;51.072;17.174;2024-02-14T05:13:37;100720.97;;;0.66;100.00
9077;BME280;4574;51.072;17.174;2024-02-14T05:16:09;100735.44;;;0.71;100.00
9077;BME280;4574;51.072;17.174;2024-02-14T05:18:38;100726.66;;;0.74;100.00
9077;BME280;4574;51.072;17.174;2024-02-14T05:21:07;100729.94;;;0.77;100.00
9077;BME280;4574;51.072;17.174;2024-02-14T05:23:36;100727.41;;;0.76;100.00
9077;BME280;4574;51.072;17.174;2024-02-14T05:26:06;100730.50;;;0.84;100.00
9077;BME280;4574;51.072;17.174;2024-02-14T05:28:35;100732.19;;;0.85;100.00
9077;BME280;4574;51.072;17.174;2024-02-14T05:31:04;100728.66;;;0.86;100.00
9077;BME280;4574;51.072;17.174;2024-02-14T05:33:34;100712.56;;;0.78;100.00
9077;BME280;4574;51.072;17.174;2024-02-14T05:36:04;100728.59;;;0.87;100.00
9077;BME280;4574;51.072;17.174;2024-02-14T05:38:34;100722.53;;;0.87;100.00
9077;BME280;4574;51.072;17.174;2024-02-14T05:41:03;100721.63;;;0.88;100.00
9077;BME280;4574;51.072;17.174;2024-02-14T05:43:31;100718.31;;;0.84;100.00
9077;BME280;4574;51.072;17.174;2024-02-14T05:46:00;100723.59;;;0.83;100.00
9077;BME280;4574;51.072;17.174;2024-02-14T05:48:28;100727.94;;;0.82;100.00
9077;BME280;4574;51.072;17.174;2024-02-14T05:50:59;100726.13;;;0.84;100.00
9077;BME280;4574;51.072;17.174;2024-02-14T05:53:27;100726.41;;;0.78;100.00
9077;BME280;4574;51.072;17.174;2024-02-14T05:55:56;100728.09;;;0.79;100.00
9077;BME280;4574;51.072;17.174;2024-02-14T05:58:25;100730.78;;;0.78;100.00
9077;BME280;4574;51.072;17.174;2024-02-14T06:00:54;100727.41;;;0.76;100.00
9077;BME280;4574;51.072;17.174;2024-02-14T06:03:23;100731.78;;;0.75;100.00
9077;BME280;4574;51.072;17.174;2024-02-14T06:05:52;100727.47;;;0.74;100.00
9077;BME280;4574;51.072;17.174;2024-02-14T06:08:22;100726.50;;;0.77;100.00
9077;BME280;4574;51.072;17.174;2024-02-14T06:10:51;100729.09;;;0.77;100.00
9077;BME280;4574;51.072;17.174;2024-02-14T06:13:22;100736.00;;;0.78;100.00
9077;BME280;4574;51.072;17.174;2024-02-14T06:15:51;100734.16;;;0.80;100.00
9077;BME280;4574;51.072;17.174;2024-02-14T06:18:20;100739.94;;;0.86;100.00
9077;BME280;4574;51.072;17.174;2024-02-14T06:20:49;100723.41;;;0.87;100.00
9077;BME280;4574;51.072;17.174;2024-02-14T06:23:17;100744.88;;;0.92;100.00
9077;BME280;4574;51.072;17.174;2024-02-14T06:25:47;100744.78;;;0.94;100.00
9077;BME280;4574;51.072;17.174;2024-02-14T06:28:16;100739.41;;;0.97;100.00
9077;BME280;4574;51.072;17.174;2024-02-14T06:30:44;100734.19;;;0.97;100.00
9077;BME280;4574;51.072;17.174;2024-02-14T06:33:13;100728.22;;;0.95;100.00
9077;BME280;4574;51.072;17.174;2024-02-14T06:35:42;100745.53;;;0.96;100.00
9077;BME280;4574;51.072;17.174;2024-02-14T06:38:11;100748.00;;;0.99;100.00
9077;BME280;4574;51.072;17.174;2024-02-14T06:40:40;100750.59;;;0.99;100.00
9077;BME280;4574;51.072;17.174;2024-02-14T06:43:09;100739.41;;;0.97;100.00
9077;BME280;4574;51.072;17.174;2024-02-14T06:45:39;100744.47;;;1.00;100.00
9077;BME280;4574;51.072;17.174;2024-02-14T06:48:08;100755.06;;;0.97;100.00
9077;BME280;4574;51.072;17.174;2024-02-14T06:50:37;100743.09;;;0.93;100.00
9077;BME280;4574;51.072;17.174;2024-02-14T06:53:06;100758.38;;;1.00;100.00
9077;BME280;4574;51.072;17.174;2024-02-14T06:55:34;100753.00;;;1.03;100.00
9077;BME280;4574;51.072;17.174;2024-02-14T06:58:03;100757.16;;;1.07;100.00
9077;BME280;4574;51.072;17.174;2024-02-14T07:00:34;100757.06;;;1.09;100.00
9077;BME280;4574;51.072;17.174;2024-02-14T07:03:03;100749.94;;;1.12;100.00
9077;BME280;4574;51.072;17.174;2024-02-14T07:05:32;100753.31;;;1.14;100.00
9077;BME280;4574;51.072;17.174;2024-02-14T07:08:00;100745.41;;;1.16;100.00
9077;BME280;4574;51.072;17.174;2024-02-14T07:10:29;100754.09;;;1.16;100.00
9077;BME280;4574;51.072;17.174;2024-02-14T07:12:58;100765.50;;;1.14;100.00
9077;BME280;4574;51.072;17.174;2024-02-14T07:15:26;100754.09;;;1.16;100.00
9077;BME280;4574;51.072;17.174;2024-02-14T07:17:57;100764.38;;;1.19;100.00
9077;BME280;4574;51.072;17.174;2024-02-14T07:20:26;100754.78;;;1.20;100.00
9077;BME280;4574;51.072;17.174;2024-02-14T07:22:55;100759.69;;;1.26;100.00
9077;BME280;4574;51.072;17.174;2024-02-14T07:25:24;100760.41;;;1.29;100.00
9077;BME280;4574;51.072;17.174;2024-02-14T07:27:52;100761.78;;;1.36;100.00
9077;BME280;4574;51.072;17.174;2024-02-14T07:30:21;100750.19;;;1.41;100.00
9077;BME280;4574;51.072;17.174;2024-02-14T07:32:50;100751.56;;;1.48;100.00
9077;BME280;4574;51.072;17.174;2024-02-14T07:35:20;100761.69;;;1.54;100.00
9077;BME280;4574;51.072;17.174;2024-02-14T07:37:49;100749.09;;;1.62;100.00
9077;BME280;4574;51.072;17.174;2024-02-14T07:40:18;100741.75;;;1.70;100.00
9077;BME280;4574;51.072;17.174;2024-02-14T07:42:46;100739.59;;;1.78;100.00
9077;BME280;4574;51.072;17.174;2024-02-14T07:45:15;100739.13;;;1.87;100.00
9077;BME280;4574;51.072;17.174;2024-02-14T07:47:44;100743.84;;;1.96;100.00
9077;BME280;4574;51.072;17.174;2024-02-14T07:50:13;100729.63;;;2.02;100.00
9077;BME280;4574;51.072;17.174;2024-02-14T07:52:43;100730.75;;;2.13;100.00
9077;BME280;4574;51.072;17.174;2024-02-14T07:55:12;100726.56;;;2.26;100.00
9077;BME280;4574;51.072;17.174;2024-02-14T07:57:41;100727.91;;;2.33;100.00
9077;BME280;4574;51.072;17.174;2024-02-14T08:00:11;100729.84;;;2.45;100.00
9077;BME280;4574;51.072;17.174;2024-02-14T08:02:45;100729.59;;;2.50;100.00
9077;BME280;4574;51.072;17.174;2024-02-14T08:05:14;100724.38;;;2.65;100.00
9077;BME280;4574;51.072;17.174;2024-02-14T08:07:44;100731.28;;;2.81;100.00
9077;BME280;4574;51.072;17.174;2024-02-14T08:10:13;100734.31;;;2.89;100.00
9077;BME280;4574;51.072;17.174;2024-02-14T08:12:42;100720.78;;;2.97;100.00
9077;BME280;4574;51.072;17.174;2024-02-14T08:15:11;100730.31;;;3.13;100.00
9077;BME280;4574;51.072;17.174;2024-02-14T08:17:39;100727.81;;;3.26;100.00
9077;BME280;4574;51.072;17.174;2024-02-14T08:20:13;100721.53;;;3.44;100.00
9077;BME280;4574;51.072;17.174;2024-02-14T08:22:41;100726.22;;;3.53;100.00
9077;BME280;4574;51.072;17.174;2024-02-14T08:25:11;100728.31;;;3.62;100.00
9077;BME280;4574;51.072;17.174;2024-02-14T08:27:40;100723.91;;;3.76;100.00
9077;BME280;4574;51.072;17.174;2024-02-14T08:30:09;100719.72;;;3.88;100.00
9077;BME280;4574;51.072;17.174;2024-02-14T08:32:39;100727.66;;;4.00;100.00
9077;BME280;4574;51.072;17.174;2024-02-14T08:35:08;100718.88;;;4.01;100.00
9077;BME280;4574;51.072;17.174;2024-02-14T08:37:40;100727.97;;;4.09;100.00
9077;BME280;4574;51.072;17.174;2024-02-14T08:40:11;100734.69;;;4.13;100.00
9077;BME280;4574;51.072;17.174;2024-02-14T08:42:40;100736.94;;;4.19;100.00
9077;BME280;4574;51.072;17.174;2024-02-14T08:45:09;100733.75;;;4.28;100.00
9077;BME280;4574;51.072;17.174;2024-02-14T08:47:38;100735.16;;;4.48;100.00
9077;BME280;4574;51.072;17.174;2024-02-14T08:50:08;100735.22;;;4.60;100.00
9077;BME280;4574;51.072;17.174;2024-02-14T08:52:37;100733.53;;;4.59;100.00
9077;BME280;4574;51.072;17.174;2024-02-14T08:55:06;100735.47;;;4.70;100.00
9077;BME280;4574;51.072;17.174;2024-02-14T08:57:43;100730.88;;;4.73;100.00
9077;BME280;4574;51.072;17.174;2024-02-14T09:00:12;100737.94;;;4.85;100.00
9077;BME280;4574;51.072;17.174;2024-02-14T09:02:42;100733.25;;;4.90;100.00
9077;BME280;4574;51.072;17.174;2024-02-14T09:05:11;100733.06;;;4.93;100.00
9077;BME280;4574;51.072;17.174;2024-02-14T09:07:39;100735.47;;;4.96;100.00
9077;BME280;4574;51.072;17.174;2024-02-14T09:10:09;100727.22;;;5.02;100.00
9077;BME280;4574;51.072;17.174;2024-02-14T09:12:44;100737.69;;;5.16;100.00
9077;BME280;4574;51.072;17.174;2024-02-14T09:15:25;100728.06;;;5.29;100.00
9077;BME280;4574;51.072;17.174;2024-02-14T09:17:59;100729.88;;;5.41;100.00
9077;BME280;4574;51.072;17.174;2024-02-14T09:20:28;100735.13;;;5.41;100.00
9077;BME280;4574;51.072;17.174;2024-02-14T09:22:57;100720.03;;;5.57;100.00
9077;BME280;4574;51.072;17.174;2024-02-14T09:25:26;100716.03;;;5.64;100.00
9077;BME280;4574;51.072;17.174;2024-02-14T09:27:56;100726.06;;;5.84;100.00
9077;BME280;4574;51.072;17.174;2024-02-14T09:30:24;100719.22;;;5.94;100.00
9077;BME280;4574;51.072;17.174;2024-02-14T09:33:04;100716.69;;;6.05;100.00
9077;BME280;4574;51.072;17.174;2024-02-14T09:35:33;100708.09;;;6.15;100.00
9077;BME280;4574;51.072;17.174;2024-02-14T09:38:02;100716.66;;;6.30;100.00
9077;BME280;4574;51.072;17.174;2024-02-14T09:40:31;100721.59;;;6.47;100.00
9077;BME280;4574;51.072;17.174;2024-02-14T09:43:03;100714.31;;;6.50;100.00
9077;BME280;4574;51.072;17.174;2024-02-14T09:45:34;100717.47;;;6.55;100.00
9077;BME280;4574;51.072;17.174;2024-02-14T09:48:04;100717.63;;;6.64;100.00
9077;BME280;4574;51.072;17.174;2024-02-14T09:50:33;100727.72;;;6.70;100.00
9077;BME280;4574;51.072;17.174;2024-02-14T09:53:02;100722.56;;;6.81;100.00
9077;BME280;4574;51.072;17.174;2024-02-14T09:55:32;100704.53;;;6.75;100.00
9077;BME280;4574;51.072;17.174;2024-02-14T09:58:03;100716.50;;;6.92;100.00
9077;BME280;4574;51.072;17.174;2024-02-14T10:00:34;100717.41;;;7.03;100.00
9077;BME280;4574;51.072;17.174;2024-02-14T10:03:04;100721.50;;;7.07;100.00
9077;BME280;4574;51.072;17.174;2024-02-14T10:05:33;100723.31;;;7.18;100.00
9077;BME280;4574;51.072;17.174;2024-02-14T10:08:01;100709.84;;;7.22;100.00
9077;BME280;4574;51.072;17.174;2024-02-14T10:10:31;100710.19;;;7.29;100.00
9077;BME280;4574;51.072;17.174;2024-02-14T10:13:05;100709.16;;;7.31;100.00
9077;BME280;4574;51.072;17.174;2024-02-14T10:15:34;100704.47;;;7.35;100.00
9077;BME280;4574;51.072;17.174;2024-02-14T10:18:03;100701.78;;;7.47;100.00
9077;BME280;4574;51.072;17.174;2024-02-14T10:20:31;100697.75;;;7.65;100.00
9077;BME280;4574;51.072;17.174;2024-02-14T10:23:01;100676.91;;;7.62;100.00
9077;BME280;4574;51.072;17.174;2024-02-14T10:25:31;100688.19;;;7.86;100.00
9077;BME280;4574;51.072;17.174;2024-02-14T10:28:05;100684.50;;;7.89;100.00
9077;BME280;4574;51.072;17.174;2024-02-14T10:30:36;100681.25;;;7.96;100.00
9077;BME280;4574;51.072;17.174;2024-02-14T10:33:07;100671.09;;;8.02;100.00
9077;BME280;4574;51.072;17.174;2024-02-14T10:35:52;100672.16;;;8.11;100.00
9077;BME280;4574;51.072;17.174;2024-02-14T10:38:27;100674.81;;;8.22;100.00
9077;BME280;4574;51.072;17.174;2024-02-14T10:41:00;100662.81;;;8.29;100.00
9077;BME280;4574;51.072;17.174;2024-02-14T10:43:30;100667.50;;;8.36;100.00
9077;BME280;4574;51.072;17.174;2024-02-14T10:46:02;100661.84;;;8.41;100.00
9077;BME280;4574;51.072;17.174;2024-02-14T10:48:35;100654.16;;;8.49;100.00
9077;BME280;4574;51.072;17.174;2024-02-14T10:51:08;100654.88;;;8.62;100.00
9077;BME280;4574;51.072;17.174;2024-02-14T10:53:39;100652.72;;;8.67;100.00
9077;BME280;4574;51.072;17.174;2024-02-14T10:56:16;100648.09;;;8.80;100.00
9077;BME280;4574;51.072;17.174;2024-02-14T10:58:47;100642.44;;;8.84;100.00
9077;BME280;4574;51.072;17.174;2024-02-14T11:01:17;100650.09;;;8.87;100.00
9077;BME280;4574;51.072;17.174;2024-02-14T11:03:46;100648.78;;;8.93;100.00
9077;BME280;4574;51.072;17.174;2024-02-14T11:06:16;100642.13;;;8.98;100.00
9077;BME280;4574;51.072;17.174;2024-02-14T11:08:56;100631.31;;;9.01;100.00
9077;BME280;4574;51.072;17.174;2024-02-14T11:11:24;100635.53;;;9.04;100.00
9077;BME280;4574;51.072;17.174;2024-02-14T11:13:55;100619.19;;;9.10;100.00
9077;BME280;4574;51.072;17.174;2024-02-14T11:16:28;100618.91;;;9.13;100.00
9077;BME280;4574;51.072;17.174;2024-02-14T11:19:06;100619.75;;;9.13;100.00
9077;BME280;4574;51.072;17.174;2024-02-14T11:21:36;100620.34;;;9.17;100.00
9077;BME280;4574;51.072;17.174;2024-02-14T11:24:06;100616.72;;;9.18;100.00
9077;BME280;4574;51.072;17.174;2024-02-14T11:26:46;100608.16;;;9.25;100.00
9077;BME280;4574;51.072;17.174;2024-02-14T11:29:18;100608.22;;;9.34;100.00
9077;BME280;4574;51.072;17.174;2024-02-14T11:31:58;100602.88;;;9.45;100.00
9077;BME280;4574;51.072;17.174;2024-02-14T11:34:27;100606.66;;;9.52;100.00
9077;BME280;4574;51.072;17.174;2024-02-14T11:37:04;100606.16;;;9.58;100.00
9077;BME280;4574;51.072;17.174;2024-02-14T11:39:34;100593.81;;;9.68;100.00
9077;BME280;4574;51.072;17.174;2024-02-14T11:42:02;100593.72;;;9.79;100.00
9077;BME280;4574;51.072;17.174;2024-02-14T11:44:32;100597.56;;;9.96;100.00
9077;BME280;4574;51.072;17.174;2024-02-14T11:47:01;100597.88;;;10.02;100.00
9077;BME280;4574;51.072;17.174;2024-02-14T11:49:32;100593.03;;;10.07;100.00
9077;BME280;4574;51.072;17.174;2024-02-14T11:52:01;100588.59;;;10.08;100.00
9077;BME280;4574;51.072;17.174;2024-02-14T11:54:31;100580.50;;;10.09;100.00
9077;BME280;4574;51.072;17.174;2024-02-14T11:57:00;100578.56;;;10.11;100.00
9077;BME280;4574;51.072;17.174;2024-02-14T11:59:29;100583.06;;;10.20;100.00
9077;BME280;4574;51.072;17.174;2024-02-14T12:01:59;100585.16;;;10.26;100.00
9077;BME280;4574;51.072;17.174;2024-02-14T12:04:30;100573.63;;;10.27;100.00
9077;BME280;4574;51.072;17.174;2024-02-14T12:06:59;100581.81;;;10.24;100.00
9077;BME280;4574;51.072;17.174;2024-02-14T12:09:27;100584.19;;;10.27;100.00
9077;BME280;4574;51.072;17.174;2024-02-14T12:11:57;100573.19;;;10.22;100.00
9077;BME280;4574;51.072;17.174;2024-02-14T12:14:27;100580.28;;;10.22;100.00
9077;BME280;4574;51.072;17.174;2024-02-14T12:17:00;100574.00;;;10.23;100.00
9077;BME280;4574;51.072;17.174;2024-02-14T12:19:30;100572.50;;;10.20;100.00
9077;BME280;4574;51.072;17.174;2024-02-14T12:22:00;100570.78;;;10.19;100.00
9077;BME280;4574;51.072;17.174;2024-02-14T12:24:29;100563.38;;;10.13;100.00
9077;BME280;4574;51.072;17.174;2024-02-14T12:26:58;100552.25;;;10.10;100.00
9077;BME280;4574;51.072;17.174;2024-02-14T12:29:26;100559.59;;;10.06;100.00
9077;BME280;4574;51.072;17.174;2024-02-14T12:32:05;100566.03;;;10.13;100.00
9077;BME280;4574;51.072;17.174;2024-02-14T12:34:34;100559.38;;;10.19;100.00
9077;BME280;4574;51.072;17.174;2024-02-14T12:37:03;100554.91;;;10.19;100.00
9077;BME280;4574;51.072;17.174;2024-02-14T12:39:32;100560.78;;;10.23;100.00
9077;BME280;4574;51.072;17.174;2024-02-14T12:42:01;100558.44;;;10.29;100.00
9077;BME280;4574;51.072;17.174;2024-02-14T12:44:29;100551.91;;;10.33;100.00
9077;BME280;4574;51.072;17.174;2024-02-14T12:46:58;100553.31;;;10.37;100.00
9077;BME280;4574;51.072;17.174;2024-02-14T12:49:28;100557.47;;;10.40;100.00
9077;BME280;4574;51.072;17.174;2024-02-14T12:51:59;100551.34;;;10.39;100.00
9077;BME280;4574;51.072;17.174;2024-02-14T12:54:27;100547.19;;;10.46;100.00
9077;BME280;4574;51.072;17.174;2024-02-14T12:56:56;100542.31;;;10.51;100.00
9077;BME280;4574;51.072;17.174;2024-02-14T12:59:25;100535.75;;;10.55;100.00
9077;BME280;4574;51.072;17.174;2024-02-14T13:01:53;100539.09;;;10.57;100.00
9077;BME280;4574;51.072;17.174;2024-02-14T13:04:22;100521.56;;;10.56;100.00
9077;BME280;4574;51.072;17.174;2024-02-14T13:06:53;100524.88;;;10.67;100.00
9077;BME280;4574;51.072;17.174;2024-02-14T13:09:21;100524.88;;;10.77;100.00
9077;BME280;4574;51.072;17.174;2024-02-14T13:11:50;100529.91;;;10.80;100.00
9077;BME280;4574;51.072;17.174;2024-02-14T13:14:19;100526.28;;;10.81;100.00